createdAt,value
2018-06-27T00:00:52.335Z,6.97
2018-06-27T00:03:20.606Z,6.83
2018-06-27T00:05:48.602Z,7.10
2018-06-27T00:08:16.914Z,6.80
2018-06-27T00:10:45.202Z,6.73
2018-06-27T00:13:13.513Z,6.53
2018-06-27T00:15:41.813Z,6.67
2018-06-27T00:18:09.835Z,6.80
2018-06-27T00:20:38.127Z,6.10
2018-06-27T00:23:06.163Z,6.53
2018-06-27T00:25:34.507Z,5.80
2018-06-27T00:28:02.793Z,6.40
2018-06-27T00:30:31.049Z,5.63
2018-06-27T00:32:59.335Z,6.30
2018-06-27T00:35:27.597Z,6.30
2018-06-27T00:37:55.861Z,6.80
2018-06-27T00:40:24.174Z,7.23
2018-06-27T00:42:52.465Z,6.97
2018-06-27T00:45:20.761Z,6.50
2018-06-27T00:47:49.032Z,6.83
2018-06-27T00:50:17.315Z,7.13
2018-06-27T00:52:45.593Z,7.07
2018-06-27T00:55:13.846Z,6.87
2018-06-27T00:57:42.114Z,6.43
2018-06-27T01:00:10.416Z,7.03
2018-06-27T01:02:38.721Z,7.30
2018-06-27T01:05:07.021Z,6.40
2018-06-27T01:07:35.351Z,6.30
2018-06-27T01:10:03.725Z,7.13
2018-06-27T01:12:31.994Z,6.57
2018-06-27T01:15:00.010Z,6.50
2018-06-27T01:17:28.285Z,6.57
2018-06-27T01:19:56.585Z,6.67
2018-06-27T01:22:24.874Z,6.23
2018-06-27T01:24:53.161Z,6.30
2018-06-27T01:27:21.423Z,5.83
2018-06-27T01:29:49.692Z,6.37
2018-06-27T01:32:17.944Z,6.33
2018-06-27T01:34:45.946Z,5.90
2018-06-27T01:37:14.205Z,7.00
2018-06-27T01:39:42.190Z,7.00
2018-06-27T01:42:10.468Z,7.07
2018-06-27T01:44:38.742Z,6.60
2018-06-27T01:47:06.756Z,6.50
2018-06-27T01:49:35.025Z,6.73
2018-06-27T01:52:03.285Z,7.07
2018-06-27T01:54:31.543Z,6.87
2018-06-27T01:56:59.794Z,7.20
2018-06-27T01:59:28.161Z,7.10
2018-06-27T02:01:56.435Z,7.17
2018-06-27T02:04:24.701Z,7.70
2018-06-27T02:06:52.977Z,7.53
2018-06-27T02:09:20.972Z,8.60
2018-06-27T02:11:49.261Z,8.30
2018-06-27T02:14:17.526Z,9.10
2018-06-27T02:16:45.805Z,9.07
2018-06-27T02:19:13.805Z,8.77
2018-06-27T02:21:42.097Z,9.80
2018-06-27T02:24:10.729Z,9.57
2018-06-27T02:26:39.050Z,9.87
2018-06-27T02:29:07.308Z,9.63
2018-06-27T02:31:35.590Z,10.20
2018-06-27T02:34:03.884Z,10.20
2018-06-27T02:36:32.205Z,10.00
2018-06-27T02:39:00.471Z,10.43
2018-06-27T02:41:28.741Z,9.77
2018-06-27T02:43:57.009Z,10.00
2018-06-27T02:46:24.991Z,9.90
2018-06-27T02:48:53.285Z,11.17
2018-06-27T02:51:21.563Z,11.77
2018-06-27T02:53:49.827Z,10.87
2018-06-27T02:56:17.845Z,12.10
2018-06-27T02:58:46.104Z,12.20
2018-06-27T03:01:14.391Z,11.17
2018-06-27T03:03:42.861Z,12.53
2018-06-27T03:06:11.172Z,11.67
2018-06-27T03:08:39.491Z,11.67
2018-06-27T03:11:07.803Z,12.00
2018-06-27T03:13:35.871Z,11.63
2018-06-27T03:16:04.216Z,11.63
2018-06-27T03:18:32.506Z,11.33
2018-06-27T03:21:00.779Z,12.03
2018-06-27T03:23:29.047Z,12.27
2018-06-27T03:25:57.467Z,11.73
2018-06-27T03:28:25.758Z,12.10
2018-06-27T03:30:54.027Z,11.40
2018-06-27T03:33:22.283Z,11.20
2018-06-27T03:35:50.586Z,10.63
2018-06-27T03:38:18.959Z,11.07
2018-06-27T03:40:47.259Z,10.77
2018-06-27T03:43:15.522Z,10.67
2018-06-27T03:45:43.796Z,11.80
2018-06-27T03:48:12.073Z,11.20
2018-06-27T03:50:40.360Z,11.83
2018-06-27T03:53:08.611Z,11.07
2018-06-27T03:55:36.970Z,10.23
2018-06-27T03:58:05.259Z,11.40
2018-06-27T04:00:33.522Z,11.23
2018-06-27T04:03:01.836Z,12.27
2018-06-27T04:05:29.834Z,11.60
2018-06-27T04:07:58.124Z,11.33
2018-06-27T04:10:26.380Z,11.67
2018-06-27T04:12:54.724Z,11.77
2018-06-27T04:15:22.972Z,11.83
2018-06-27T04:17:52.321Z,11.47
2018-06-27T04:20:20.597Z,11.53
2018-06-27T04:22:48.912Z,11.27
2018-06-27T04:25:17.197Z,10.97
2018-06-27T04:27:45.268Z,11.63
2018-06-27T04:30:13.257Z,10.97
2018-06-27T04:32:41.530Z,10.33
2018-06-27T04:35:09.502Z,10.53
2018-06-27T04:37:37.537Z,10.47
2018-06-27T04:40:05.910Z,10.00
2018-06-27T04:42:34.196Z,10.03
2018-06-27T04:45:02.476Z,9.90
2018-06-27T04:47:30.754Z,10.47
2018-06-27T04:49:59.073Z,9.87
2018-06-27T04:52:27.356Z,10.03
2018-06-27T04:54:55.702Z,10.00
2018-06-27T04:57:23.902Z,9.57
2018-06-27T04:59:52.167Z,9.20
2018-06-27T05:02:20.436Z,10.20
2018-06-27T05:04:48.728Z,9.97
2018-06-27T05:07:17.108Z,10.77
2018-06-27T05:09:45.401Z,8.80
2018-06-27T05:12:13.668Z,8.93
2018-06-27T05:14:41.948Z,9.03
2018-06-27T05:17:10.248Z,8.87
2018-06-27T05:19:41.097Z,8.90
2018-06-27T05:22:09.445Z,8.70
2018-06-27T05:24:37.716Z,7.90
2018-06-27T05:27:06.223Z,8.03
2018-06-27T05:29:34.506Z,8.03
2018-06-27T05:32:02.861Z,7.50
2018-06-27T05:34:30.867Z,7.37
2018-06-27T05:36:59.245Z,7.27
2018-06-27T05:39:27.504Z,7.60
2018-06-27T05:41:55.786Z,7.40
2018-06-27T05:44:24.059Z,6.93
2018-06-27T05:46:52.352Z,7.67
2018-06-27T05:49:20.632Z,7.60
2018-06-27T05:51:48.619Z,7.70
2018-06-27T05:54:16.890Z,7.67
2018-06-27T05:56:45.149Z,7.13
2018-06-27T05:59:13.430Z,7.47
2018-06-27T06:01:41.714Z,7.37
2018-06-27T06:04:10.019Z,7.07
2018-06-27T06:06:38.099Z,6.30
2018-06-27T06:09:09.320Z,7.03
2018-06-27T06:11:37.706Z,6.87
2018-06-27T06:14:06.054Z,6.30
2018-06-27T06:16:34.576Z,5.87
2018-06-27T06:19:02.895Z,6.33
2018-06-27T06:21:31.153Z,5.50
2018-06-27T06:23:59.403Z,5.07
2018-06-27T06:26:27.689Z,4.90
2018-06-27T06:28:55.968Z,4.70
2018-06-27T06:31:24.281Z,4.87
2018-06-27T06:33:52.555Z,5.07
2018-06-27T06:36:20.861Z,15.57
2018-06-27T06:38:48.860Z,4.73
2018-06-27T06:41:17.140Z,4.37
2018-06-27T06:43:45.445Z,4.60
2018-06-27T06:46:13.856Z,4.40
2018-06-27T06:48:42.140Z,4.60
2018-06-27T06:51:10.407Z,4.30
2018-06-27T06:53:38.681Z,4.30
2018-06-27T06:56:06.993Z,4.23
2018-06-27T06:58:35.276Z,4.30
2018-06-27T07:01:03.609Z,3.80
2018-06-27T07:03:31.887Z,3.93
2018-06-27T07:06:00.184Z,3.83
2018-06-27T07:08:28.493Z,4.20
2018-06-27T07:10:56.915Z,4.00
2018-06-27T07:13:25.172Z,4.20
2018-06-27T07:15:53.555Z,3.90
2018-06-27T07:18:21.834Z,3.70
2018-06-27T07:20:50.176Z,3.60
2018-06-27T07:23:18.444Z,3.23
2018-06-27T07:25:46.721Z,3.27
2018-06-27T07:28:15.013Z,3.60
2018-06-27T07:30:43.399Z,3.67
2018-06-27T07:33:11.695Z,3.57
2018-06-27T07:35:40.210Z,3.00
2018-06-27T07:38:08.477Z,3.30
2018-06-27T07:40:36.745Z,3.47
2018-06-27T07:43:05.119Z,3.60
2018-06-27T07:45:33.423Z,3.43
2018-06-27T07:48:01.707Z,3.50
2018-06-27T07:50:29.992Z,3.10
2018-06-27T07:52:58.004Z,3.50
2018-06-27T07:55:26.288Z,3.13
2018-06-27T07:57:54.608Z,3.10
2018-06-27T08:00:22.880Z,3.40
2018-06-27T08:02:51.133Z,2.93
2018-06-27T08:05:19.397Z,3.23
2018-06-27T08:07:47.688Z,3.50
2018-06-27T08:10:16.078Z,3.40
2018-06-27T08:12:44.332Z,3.20
2018-06-27T08:15:12.701Z,3.40
2018-06-27T08:17:40.982Z,2.93
2018-06-27T08:20:09.358Z,3.10
2018-06-27T08:22:37.641Z,3.10
2018-06-27T08:25:05.920Z,2.97
2018-06-27T08:27:34.229Z,3.07
2018-06-27T08:30:02.517Z,3.00
2018-06-27T08:32:31.057Z,2.80
2018-06-27T08:34:59.321Z,2.87
2018-06-27T08:37:27.602Z,2.63
2018-06-27T08:39:56.073Z,2.73
2018-06-27T08:42:24.408Z,2.97
2018-06-27T08:44:52.693Z,2.53
2018-06-27T08:47:20.995Z,2.77
2018-06-27T08:49:49.430Z,2.57
2018-06-27T08:52:17.712Z,2.47
2018-06-27T08:54:46.544Z,2.83
2018-06-27T08:57:16.600Z,3.30
2018-06-27T08:59:44.924Z,2.90
2018-06-27T09:02:13.238Z,2.40
2018-06-27T09:04:41.616Z,3.00
2018-06-27T09:07:10.338Z,3.07
2018-06-27T09:09:38.978Z,2.60
2018-06-27T09:12:07.314Z,3.40
2018-06-27T09:14:35.618Z,2.73
2018-06-27T09:17:04.016Z,3.27
2018-06-27T09:19:32.031Z,2.60
2018-06-27T09:22:00.580Z,2.83
2018-06-27T09:24:28.649Z,2.70
2018-06-27T09:26:56.660Z,2.87
2018-06-27T09:29:24.989Z,2.87
2018-06-27T09:31:53.302Z,2.83
2018-06-27T09:34:21.584Z,3.10
2018-06-27T09:36:49.592Z,2.40
2018-06-27T09:39:17.944Z,2.40
2018-06-27T09:41:45.961Z,2.60
2018-06-27T09:44:14.256Z,2.87
2018-06-27T09:46:42.584Z,2.57
2018-06-27T09:49:10.585Z,2.33
2018-06-27T09:51:38.864Z,2.70
2018-06-27T09:54:07.190Z,2.47
2018-06-27T09:56:35.484Z,2.97
2018-06-27T09:59:03.812Z,2.57
2018-06-27T10:01:32.130Z,2.40
2018-06-27T10:04:00.422Z,3.10
2018-06-27T10:06:28.700Z,2.50
2018-06-27T10:08:56.988Z,2.77
2018-06-27T10:11:25.258Z,2.63
2018-06-27T10:13:53.630Z,2.60
2018-06-27T10:16:21.920Z,2.40
2018-06-27T10:18:50.221Z,2.10
2018-06-27T10:21:18.516Z,2.47
2018-06-27T10:23:46.825Z,2.50
2018-06-27T10:26:15.107Z,2.40
2018-06-27T10:28:43.437Z,2.30
2018-06-27T10:31:11.708Z,2.30
2018-06-27T10:33:39.996Z,2.23
2018-06-27T10:36:08.305Z,2.33
2018-06-27T10:38:36.579Z,2.20
2018-06-27T10:41:04.898Z,2.80
2018-06-27T10:43:32.901Z,3.03
2018-06-27T10:46:02.066Z,15.97
2018-06-27T10:48:30.353Z,6.00
2018-06-27T10:50:58.640Z,2.30
2018-06-27T10:53:26.969Z,2.20
2018-06-27T10:55:55.248Z,2.10
2018-06-27T10:58:23.513Z,2.63
2018-06-27T11:00:51.844Z,2.57
2018-06-27T11:03:20.172Z,2.33
2018-06-27T11:05:48.555Z,2.70
2018-06-27T11:08:16.962Z,2.70
2018-06-27T11:10:45.324Z,2.37
2018-06-27T11:13:13.664Z,2.70
2018-06-27T11:15:41.966Z,2.37
2018-06-27T11:18:09.988Z,2.43
2018-06-27T11:20:38.287Z,2.43
2018-06-27T11:23:06.562Z,1.97
2018-06-27T11:25:34.857Z,1.90
2018-06-27T11:28:03.177Z,1.90
2018-06-27T11:30:31.200Z,2.43
2018-06-27T11:32:59.501Z,2.17
2018-06-27T11:35:27.780Z,2.00
2018-06-27T11:37:56.066Z,2.70
2018-06-27T11:40:24.417Z,5.57
2018-06-27T11:42:52.747Z,2.07
2018-06-27T11:45:21.028Z,5.30
2018-06-27T11:47:49.322Z,1.60
2018-06-27T11:50:17.635Z,1.60
2018-06-27T11:52:46.161Z,1.50
2018-06-27T11:55:14.483Z,1.97
2018-06-27T11:57:44.148Z,2.00
2018-06-27T12:00:12.519Z,1.97
2018-06-27T12:02:40.828Z,1.93
2018-06-27T12:05:09.835Z,1.73
2018-06-27T12:07:38.293Z,2.00
2018-06-27T12:10:06.660Z,1.70
2018-06-27T12:12:34.945Z,2.30
2018-06-27T12:15:03.249Z,2.07
2018-06-27T12:17:31.761Z,13.30
2018-06-27T12:20:00.072Z,15.23
2018-06-27T12:22:28.310Z,2.20
2018-06-27T12:24:56.652Z,2.20
2018-06-27T12:27:24.920Z,1.90
2018-06-27T12:29:53.220Z,1.73
2018-06-27T12:32:21.585Z,1.90
2018-06-27T12:34:49.582Z,1.87
2018-06-27T12:37:17.869Z,2.13
2018-06-27T12:39:46.169Z,1.73
2018-06-27T12:42:14.511Z,2.10
2018-06-27T12:44:42.841Z,2.07
2018-06-27T12:47:11.148Z,1.80
2018-06-27T12:49:39.510Z,2.20
2018-06-27T12:52:07.789Z,2.30
2018-06-27T12:54:36.067Z,2.00
2018-06-27T12:57:04.395Z,2.20
2018-06-27T12:59:32.402Z,2.17
2018-06-27T13:02:00.676Z,4.73
2018-06-27T13:04:28.975Z,2.10
2018-06-27T13:06:57.257Z,2.20
2018-06-27T13:09:25.561Z,4.60
2018-06-27T13:11:54.041Z,2.20
2018-06-27T13:14:22.383Z,16.03
2018-06-27T13:16:50.416Z,2.80
2018-06-27T13:19:18.725Z,3.43
2018-06-27T13:21:47.045Z,2.90
2018-06-27T13:24:15.355Z,2.10
2018-06-27T13:26:43.677Z,1.67
2018-06-27T13:29:12.009Z,2.10
2018-06-27T13:31:40.299Z,2.00
2018-06-27T13:34:08.591Z,1.70
2018-06-27T13:36:36.879Z,2.07
2018-06-27T13:39:07.669Z,2.00
2018-06-27T13:41:35.956Z,1.57
2018-06-27T13:44:04.371Z,1.80
2018-06-27T13:46:32.735Z,2.30
2018-06-27T13:49:01.067Z,1.77
2018-06-27T13:51:29.389Z,2.10
2018-06-27T13:53:57.677Z,2.07
2018-06-27T13:56:25.957Z,2.10
2018-06-27T13:58:54.252Z,1.93
2018-06-27T14:01:22.593Z,2.00
2018-06-27T14:03:50.895Z,2.10
2018-06-27T14:06:19.107Z,2.10
2018-06-27T14:08:47.449Z,2.03
2018-06-27T14:11:15.711Z,1.90
2018-06-27T14:13:44.013Z,1.93
2018-06-27T14:16:12.309Z,1.90
2018-06-27T14:18:40.352Z,1.77
2018-06-27T14:21:08.685Z,1.73
2018-06-27T14:23:37.113Z,1.80
2018-06-27T14:26:05.668Z,1.90
2018-06-27T14:28:33.972Z,1.90
2018-06-27T14:31:02.386Z,1.90
2018-06-27T14:33:30.717Z,1.50
2018-06-27T14:35:59.013Z,1.87
2018-06-27T14:38:27.285Z,1.80
2018-06-27T14:40:55.589Z,1.50
2018-06-27T14:43:23.866Z,1.30
2018-06-27T14:45:52.177Z,1.30
2018-06-27T14:48:20.443Z,1.40
2018-06-27T14:50:48.739Z,1.30
2018-06-27T14:53:17.077Z,1.37
2018-06-27T14:55:45.379Z,1.13
2018-06-27T14:58:13.683Z,1.53
2018-06-27T15:00:42.094Z,1.73
2018-06-27T15:03:10.369Z,1.40
2018-06-27T15:05:38.643Z,1.50
2018-06-27T15:08:07.268Z,1.30
2018-06-27T15:10:35.555Z,1.40
2018-06-27T15:13:03.884Z,1.40
2018-06-27T15:15:32.166Z,1.27
2018-06-27T15:18:00.459Z,1.20
2018-06-27T15:20:28.758Z,1.10
2018-06-27T15:22:57.063Z,1.50
2018-06-27T15:25:25.490Z,1.40
2018-06-27T15:27:53.795Z,1.50
2018-06-27T15:30:22.130Z,1.43
2018-06-27T15:32:50.614Z,1.53
2018-06-27T15:35:18.993Z,1.40
2018-06-27T15:37:47.040Z,1.53
2018-06-27T15:40:15.332Z,1.40
2018-06-27T15:42:43.350Z,1.40
2018-06-27T15:45:11.627Z,1.47
2018-06-27T15:47:39.896Z,1.50
2018-06-27T15:50:08.170Z,1.50
2018-06-27T15:52:36.628Z,1.77
2018-06-27T15:55:05.058Z,1.90
2018-06-27T15:57:33.359Z,1.83
2018-06-27T16:00:01.372Z,1.93
2018-06-27T16:02:29.658Z,1.70
2018-06-27T16:04:57.968Z,1.70
2018-06-27T16:07:26.328Z,1.73
2018-06-27T16:09:54.640Z,1.67
2018-06-27T16:12:22.935Z,1.80
2018-06-27T16:14:51.220Z,2.10
2018-06-27T16:17:19.762Z,1.83
2018-06-27T16:19:47.853Z,1.90
2018-06-27T16:22:16.216Z,1.60
2018-06-27T16:24:44.562Z,2.00
2018-06-27T16:27:12.963Z,2.00
2018-06-27T16:29:41.272Z,1.80
2018-06-27T16:32:09.651Z,1.90
2018-06-27T16:34:37.960Z,2.03
2018-06-27T16:37:06.266Z,1.80
2018-06-27T16:39:34.530Z,2.13
2018-06-27T16:42:02.813Z,1.80
2018-06-27T16:44:31.156Z,1.80
2018-06-27T16:46:59.594Z,1.73
2018-06-27T16:49:27.893Z,2.10
2018-06-27T16:51:56.285Z,1.60
2018-06-27T16:54:24.736Z,1.50
2018-06-27T16:56:53.086Z,1.83
2018-06-27T16:59:21.348Z,1.77
2018-06-27T17:01:49.704Z,1.87
2018-06-27T17:04:18.083Z,1.77
2018-06-27T17:06:46.419Z,1.80
2018-06-27T17:09:14.694Z,1.83
2018-06-27T17:11:42.968Z,1.83
2018-06-27T17:14:11.261Z,1.70
2018-06-27T17:16:39.590Z,1.80
2018-06-27T17:19:07.984Z,2.10
2018-06-27T17:21:36.183Z,1.80
2018-06-27T17:24:04.491Z,1.63
2018-06-27T17:26:32.796Z,1.70
2018-06-27T17:29:01.082Z,2.10
2018-06-27T17:31:29.461Z,1.80
2018-06-27T17:33:57.758Z,2.40
2018-06-27T17:36:26.068Z,2.17
2018-06-27T17:38:54.359Z,2.00
2018-06-27T17:41:22.663Z,2.20
2018-06-27T17:43:50.960Z,3.97
2018-06-27T17:46:19.274Z,2.77
2018-06-27T17:48:47.276Z,3.50
2018-06-27T17:51:15.592Z,3.10
2018-06-27T17:53:43.914Z,2.83
2018-06-27T17:56:12.184Z,2.73
2018-06-27T17:58:40.222Z,2.80
2018-06-27T18:01:08.522Z,3.00
2018-06-27T18:03:36.816Z,3.03
2018-06-27T18:06:05.196Z,2.83
2018-06-27T18:08:33.482Z,3.00
2018-06-27T18:11:01.897Z,2.87
2018-06-27T18:13:30.209Z,2.90
2018-06-27T18:15:58.481Z,3.20
2018-06-27T18:18:26.809Z,3.10
2018-06-27T18:20:55.108Z,3.20
2018-06-27T18:23:23.155Z,2.53
2018-06-27T18:25:51.479Z,3.60
2018-06-27T18:28:19.761Z,3.10
2018-06-27T18:30:48.093Z,2.93
2018-06-27T18:33:16.599Z,3.37
2018-06-27T18:35:44.907Z,2.93
2018-06-27T18:38:13.362Z,3.10
2018-06-27T18:40:41.801Z,2.93
2018-06-27T18:43:10.121Z,3.10
2018-06-27T18:45:38.159Z,3.10
2018-06-27T18:48:06.520Z,3.30
2018-06-27T18:50:34.832Z,3.10
2018-06-27T18:53:03.150Z,3.23
2018-06-27T18:55:31.529Z,3.20
2018-06-27T18:57:59.887Z,3.10
2018-06-27T19:00:28.240Z,2.90
2018-06-27T19:02:56.268Z,3.27
2018-06-27T19:05:24.615Z,2.80
2018-06-27T19:07:52.957Z,2.87
2018-06-27T19:10:21.713Z,2.83
2018-06-27T19:12:50.142Z,3.40
2018-06-27T19:15:19.063Z,3.00
2018-06-27T19:17:47.073Z,3.10
2018-06-27T19:20:15.407Z,2.87
2018-06-27T19:22:43.751Z,2.90
2018-06-27T19:25:12.069Z,2.87
2018-06-27T19:27:40.405Z,2.70
2018-06-27T19:30:08.709Z,3.17
2018-06-27T19:32:37.102Z,3.17
2018-06-27T19:35:06.051Z,3.10
2018-06-27T19:37:34.497Z,2.80
2018-06-27T19:40:02.835Z,2.70
2018-06-27T19:42:31.116Z,2.63
2018-06-27T19:44:59.522Z,2.30
2018-06-27T19:47:27.900Z,2.30
2018-06-27T19:49:58.140Z,2.40
2018-06-27T19:52:26.217Z,2.30
2018-06-27T19:54:54.534Z,33.93
2018-06-27T19:57:22.897Z,8.80
2018-06-27T19:59:51.206Z,6.73
2018-06-27T20:02:19.320Z,2.57
2018-06-27T20:04:47.596Z,2.47
2018-06-27T20:07:16.009Z,2.70
2018-06-27T20:09:44.386Z,2.30
2018-06-27T20:12:12.666Z,2.20
2018-06-27T20:14:41.087Z,2.50
2018-06-27T20:17:09.366Z,2.57
2018-06-27T20:19:37.687Z,2.10
2018-06-27T20:22:06.150Z,2.30
2018-06-27T20:24:34.137Z,2.20
2018-06-27T20:27:02.504Z,2.30
2018-06-27T20:29:30.823Z,2.30
2018-06-27T20:31:59.174Z,2.20
2018-06-27T20:34:27.500Z,2.27
2018-06-27T20:36:55.835Z,27.83
2018-06-27T20:39:24.190Z,6.10
2018-06-27T20:41:52.606Z,13.33
2018-06-27T20:44:20.692Z,12.60
2018-06-27T20:46:48.765Z,2.77
2018-06-27T20:49:17.081Z,1.83
2018-06-27T20:51:45.401Z,2.10
2018-06-27T20:54:13.784Z,1.70
2018-06-27T20:56:42.033Z,1.70
2018-06-27T20:59:10.325Z,2.03
2018-06-27T21:01:38.731Z,1.90
2018-06-27T21:04:07.033Z,1.90
2018-06-27T21:06:35.349Z,1.77
2018-06-27T21:09:04.041Z,1.90
2018-06-27T21:11:32.381Z,1.87
2018-06-27T21:14:00.663Z,1.70
2018-06-27T21:16:29.015Z,1.67
2018-06-27T21:18:57.316Z,1.70
2018-06-27T21:21:25.662Z,1.90
2018-06-27T21:23:53.941Z,1.87
2018-06-27T21:26:22.253Z,2.00
2018-06-27T21:28:50.577Z,1.90
2018-06-27T21:31:18.944Z,1.80
2018-06-27T21:33:47.252Z,2.10
2018-06-27T21:36:15.565Z,2.40
2018-06-27T21:38:43.851Z,2.33
2018-06-27T21:41:12.171Z,1.70
2018-06-27T21:43:40.458Z,2.20
2018-06-27T21:46:08.766Z,1.80
2018-06-27T21:48:37.069Z,2.27
2018-06-27T21:51:05.394Z,2.20
2018-06-27T21:53:33.687Z,2.10
2018-06-27T21:56:02.001Z,2.23
2018-06-27T21:58:30.318Z,2.10
2018-06-27T22:00:58.617Z,2.40
2018-06-27T22:03:26.988Z,1.80
2018-06-27T22:05:55.360Z,2.00
2018-06-27T22:08:23.687Z,2.27
2018-06-27T22:10:51.701Z,2.33
2018-06-27T22:13:19.981Z,2.27
2018-06-27T22:15:48.273Z,2.80
2018-06-27T22:18:16.909Z,2.87
2018-06-27T22:20:45.204Z,2.80
2018-06-27T22:23:13.481Z,2.63
2018-06-27T22:25:41.766Z,2.37
2018-06-27T22:28:10.049Z,2.20
2018-06-27T22:30:38.957Z,2.13
2018-06-27T22:33:07.478Z,1.80
2018-06-27T22:35:35.473Z,2.13
2018-06-27T22:38:03.824Z,2.33
2018-06-27T22:40:31.857Z,2.10
2018-06-27T22:43:00.315Z,2.30
2018-06-27T22:45:28.685Z,1.97
2018-06-27T22:47:56.974Z,2.27
2018-06-27T22:50:25.384Z,2.20
2018-06-27T22:52:53.668Z,2.63
2018-06-27T22:55:21.979Z,2.40
2018-06-27T22:57:50.293Z,2.70
2018-06-27T23:00:21.576Z,2.67
2018-06-27T23:02:49.885Z,2.60
2018-06-27T23:05:18.175Z,2.70
2018-06-27T23:07:46.489Z,2.70
2018-06-27T23:10:14.491Z,2.50
2018-06-27T23:12:42.866Z,2.77
2018-06-27T23:15:11.161Z,2.50
2018-06-27T23:17:39.469Z,2.53
2018-06-27T23:20:07.844Z,2.60
2018-06-27T23:22:41.889Z,2.60
2018-06-27T23:25:10.215Z,2.63
2018-06-27T23:27:38.595Z,3.10
2018-06-27T23:30:07.536Z,3.00
2018-06-27T23:32:35.873Z,3.10
2018-06-27T23:35:04.287Z,2.73
2018-06-27T23:37:32.583Z,2.67
2018-06-27T23:40:00.867Z,2.57
2018-06-27T23:42:29.400Z,2.93
2018-06-27T23:44:57.419Z,2.33
2018-06-27T23:47:25.699Z,2.90
2018-06-27T23:49:54.001Z,2.43
2018-06-27T23:52:22.305Z,2.67
2018-06-27T23:54:50.612Z,3.03
2018-06-27T23:57:18.901Z,2.97
2018-06-27T23:59:47.241Z,2.90
